Time;durP1;ratioP1;P1;durP2;ratioP2;P2;SDS_P1;SDS_P2;PMS_P1;PMS_P2;Temp;Humidity;BMP_temperature;BMP_pressure;BME280_temperature;BME280_humidity;BME280_pressure;Samples;Min_cycle;Max_cycle;Signal;HPM_P1;HPM_P2
2022/09/23 00:00:29;;;;;;;27.60;9.70;;;;;;;;;;5031376;28;20742;-62
2022/09/23 00:02:56;;;;;;;23.43;9.50;;;;;;;;;;5023834;28;20480;-63
2022/09/23 00:05:23;;;;;;;25.03;9.23;;;7.90;86.20;;;;;;5024889;28;20566;-63
2022/09/23 00:07:49;;;;;;;30.73;8.27;;;7.80;86.10;;;;;;5008425;28;20491;-63
2022/09/23 00:10:16;;;;;;;29.07;9.33;;;7.80;85.60;;;;;;5017348;28;20489;-64
2022/09/23 00:12:44;;;;;;;28.83;8.60;;;7.70;85.40;;;;;;5024772;28;20483;-63
2022/09/23 00:15:12;;;;;;;41.20;13.70;;;;;;;;;;5009331;28;20480;-65
2022/09/23 00:17:39;;;;;;;42.13;12.57;;;;;;;;;;5010664;28;20488;-63
2022/09/23 00:20:08;;;;;;;32.87;10.60;;;7.70;86.60;;;;;;5005289;28;20485;-62
2022/09/23 00:22:35;;;;;;;28.27;9.10;;;7.60;86.00;;;;;;4999450;28;20500;-63
2022/09/23 00:25:02;;;;;;;31.47;9.47;;;;;;;;;;5008047;28;20693;-63
2022/09/23 00:27:29;;;;;;;45.73;11.60;;;;;;;;;;5010541;28;20492;-62
2022/09/23 00:29:57;;;;;;;23.97;7.07;;;7.40;87.80;;;;;;5010983;28;21000;-63
2022/09/23 00:32:24;;;;;;;24.00;7.90;;;7.30;88.00;;;;;;5012711;28;20506;-63
2022/09/23 00:34:51;;;;;;;23.93;8.47;;;7.30;89.30;;;;;;5014309;28;20548;-62
2022/09/23 00:37:18;;;;;;;57.17;13.60;;;7.20;89.20;;;;;;5014100;28;20497;-62
2022/09/23 00:39:45;;;;;;;28.23;7.20;;;7.30;89.00;;;;;;5015547;28;21000;-63
2022/09/23 00:42:15;;;;;;;45.03;12.33;;;7.30;88.70;;;;;;5010221;28;20768;-62
2022/09/23 00:44:45;;;;;;;59.83;9.20;;;7.30;88.30;;;;;;5013207;28;20524;-63
2022/09/23 00:47:23;;;;;;;51.93;12.00;;;7.20;88.10;;;;;;5009824;28;20997;-63
2022/09/23 00:50:00;;;;;;;25.93;7.73;;;7.20;88.60;;;;;;5020750;28;20485;-62
2022/09/23 00:52:27;;;;;;;25.43;8.97;;;7.20;88.50;;;;;;4999947;28;20485;-63
2022/09/23 00:54:58;;;;;;;23.33;8.20;;;7.20;88.60;;;;;;5009541;28;21026;-62
2022/09/23 00:57:26;;;;;;;37.50;8.17;;;;;;;;;;5003797;28;20469;-63
2022/09/23 00:59:53;;;;;;;34.20;9.40;;;;;;;;;;5008927;28;20856;-62
2022/09/23 01:02:21;;;;;;;34.77;10.23;;;7.20;87.70;;;;;;5011531;28;20829;-62
2022/09/23 01:04:49;;;;;;;26.73;8.10;;;7.20;87.90;;;;;;5013329;28;20480;-63
2022/09/23 01:07:16;;;;;;;42.47;11.53;;;;;;;;;;5015294;28;20881;-63
2022/09/23 01:09:43;;;;;;;27.57;8.67;;;;;;;;;;5014084;28;20481;-62
2022/09/23 01:12:22;;;;;;;42.17;11.80;;;7.20;87.80;;;;;;5012436;28;21176;-63
2022/09/23 01:14:53;;;;;;;13.97;6.37;;;;;;;;;;4998321;28;20480;-63
2022/09/23 01:17:28;;;;;;;25.50;8.50;;;7.20;88.40;;;;;;5019496;28;20968;-63
2022/09/23 01:20:12;;;;;;;22.30;8.83;;;7.20;88.10;;;;;;5006059;28;20497;-64
2022/09/23 01:22:45;;;;;;;21.00;6.27;;;7.20;87.50;;;;;;5020855;28;20541;-63
2022/09/23 01:25:27;;;;;;;33.73;11.67;;;7.20;87.90;;;;;;5016118;28;20569;-64
2022/09/23 01:28:03;;;;;;;25.67;9.40;;;;;;;;;;5015471;28;20477;-63
2022/09/23 01:30:47;;;;;;;21.50;8.00;;;7.10;87.80;;;;;;5015935;28;20488;-63
2022/09/23 01:33:16;;;;;;;21.10;8.73;;;;;;;;;;5017563;28;20483;-63
2022/09/23 01:35:46;;;;;;;22.27;6.97;;;;;;;;;;5018479;28;20963;-63
2022/09/23 01:38:22;;;;;;;31.70;11.93;;;6.90;88.60;;;;;;5015384;28;20566;-62
2022/09/23 01:40:58;;;;;;;19.10;7.03;;;6.80;89.40;;;;;;5013606;28;20874;-64
2022/09/23 01:43:31;;;;;;;18.10;8.53;;;6.90;89.60;;;;;;5014406;28;20837;-64
2022/09/23 01:46:00;;;;;;;18.77;7.67;;;6.90;89.70;;;;;;5013014;28;20868;-63
2022/09/23 01:48:32;;;;;;;19.10;7.03;;;6.90;89.90;;;;;;5014955;28;20547;-63
2022/09/23 01:51:05;;;;;;;29.00;8.50;;;6.90;89.40;;;;;;5010661;28;20485;-62
2022/09/23 01:53:39;;;;;;;24.70;7.53;;;6.90;88.90;;;;;;5016115;28;20497;-62
2022/09/23 01:56:12;;;;;;;27.17;7.50;;;6.90;89.20;;;;;;5004759;28;21036;-62
2022/09/23 01:58:42;;;;;;;15.30;7.30;;;6.90;89.10;;;;;;5015112;28;20477;-63
2022/09/23 02:01:18;;;;;;;20.20;8.07;;;6.90;89.40;;;;;;5005618;28;20480;-62
2022/09/23 02:03:49;;;;;;;16.57;7.70;;;6.80;89.60;;;;;;5009486;28;20481;-62
2022/09/23 02:06:21;;;;;;;31.73;10.87;;;6.80;89.80;;;;;;5002336;28;20496;-62
2022/09/23 02:08:55;;;;;;;31.30;9.10;;;6.70;90.00;;;;;;5004425;28;20488;-61
2022/09/23 02:11:22;;;;;;;23.10;9.37;;;6.70;90.00;;;;;;5025059;28;20711;-63
2022/09/23 02:13:51;;;;;;;21.30;7.60;;;;;;;;;;5012761;28;20489;-61
2022/09/23 02:16:26;;;;;;;32.67;12.33;;;6.70;89.90;;;;;;5006395;28;20485;-63
2022/09/23 02:18:57;;;;;;;35.17;9.60;;;6.70;89.60;;;;;;5015205;28;20492;-64
2022/09/23 02:21:29;;;;;;;25.70;7.90;;;6.70;90.10;;;;;;5012723;28;21028;-63
2022/09/23 02:24:04;;;;;;;20.83;7.87;;;6.70;90.60;;;;;;4995917;28;20985;-63
2022/09/23 02:26:33;;;;;;;23.40;6.90;;;;;;;;;;5028670;28;20476;-64
2022/09/23 02:29:08;;;;;;;23.80;8.27;;;6.80;90.30;;;;;;5016426;28;20489;-64
2022/09/23 02:31:41;;;;;;;21.80;7.60;;;6.80;90.10;;;;;;5018062;28;21441;-63
2022/09/23 02:34:16;;;;;;;19.17;7.13;;;;;;;;;;5014466;28;20488;-63
2022/09/23 02:36:49;;;;;;;19.07;7.23;;;6.90;89.50;;;;;;5016979;28;20477;-62
2022/09/23 02:39:20;;;;;;;35.90;10.50;;;6.80;89.20;;;;;;4990198;28;20480;-64
2022/09/23 02:41:56;;;;;;;25.23;8.53;;;6.80;88.90;;;;;;5018398;28;20476;-63
2022/09/23 02:44:24;;;;;;;19.37;7.20;;;6.80;89.10;;;;;;5000918;28;20484;-63
2022/09/23 02:46:52;;;;;;;18.33;8.73;;;6.80;88.90;;;;;;5015430;28;20563;-63
2022/09/23 02:49:22;;;;;;;27.60;10.27;;;6.80;89.20;;;;;;5002468;28;20489;-64
2022/09/23 02:51:50;;;;;;;29.13;6.67;;;6.70;89.60;;;;;;4999373;28;20552;-63
2022/09/23 02:54:19;;;;;;;25.60;10.70;;;;;;;;;;4996644;28;20848;-63
2022/09/23 02:56:48;;;;;;;25.13;8.43;;;;;;;;;;4996321;28;20878;-63
2022/09/23 02:59:18;;;;;;;21.40;6.80;;;6.70;89.80;;;;;;4993502;28;20482;-62
2022/09/23 03:01:55;;;;;;;23.20;9.93;;;6.70;90.00;;;;;;4986888;28;20474;-64
2022/09/23 03:04:30;;;;;;;14.20;6.67;;;6.70;89.90;;;;;;4988248;28;20492;-63
2022/09/23 03:07:02;;;;;;;23.40;9.53;;;6.70;89.80;;;;;;4994926;28;20483;-65
2022/09/23 03:09:34;;;;;;;20.13;7.13;;;6.60;89.70;;;;;;4994342;28;21058;-63
2022/09/23 03:12:12;;;;;;;14.37;6.33;;;6.60;89.30;;;;;;4992675;28;20491;-62
2022/09/23 03:14:48;;;;;;;19.93;6.63;;;6.60;89.30;;;;;;4993535;28;20480;-62
2022/09/23 03:17:21;;;;;;;21.43;9.37;;;6.70;89.70;;;;;;4978107;28;20478;-63
2022/09/23 03:19:55;;;;;;;14.90;6.80;;;6.70;89.50;;;;;;5006878;28;20465;-62
2022/09/23 03:22:27;;;;;;;26.83;7.97;;;6.70;89.40;;;;;;4990174;28;20838;-62
2022/09/23 03:24:55;;;;;;;19.07;7.40;;;6.70;89.20;;;;;;4993515;28;20605;-64
2022/09/23 03:27:25;;;;;;;31.03;8.43;;;6.70;89.70;;;;;;4997913;28;20482;-63
2022/09/23 03:29:54;;;;;;;27.73;7.27;;;4.30;87.40;;;;;;4993665;28;20482;-63
2022/09/23 03:32:26;;;;;;;28.07;9.83;;;6.60;89.20;;;;;;4993092;28;20512;-63
2022/09/23 03:35:02;;;;;;;22.60;6.80;;;6.60;89.10;;;;;;4994211;28;20914;-62
2022/09/23 03:37:32;;;;;;;27.90;9.00;;;6.60;88.80;;;;;;4975003;28;20491;-63
2022/09/23 03:40:05;;;;;;;20.87;8.40;;;6.60;89.00;;;;;;4971133;28;20538;-63
2022/09/23 03:42:33;;;;;;;17.63;7.70;;;;;;;;;;4973578;28;20504;-62
2022/09/23 03:45:06;;;;;;;22.63;8.50;;;6.60;89.20;;;;;;4981908;28;20466;-62
2022/09/23 03:47:34;;;;;;;23.07;8.23;;;6.60;89.10;;;;;;4983959;28;20478;-63
2022/09/23 03:50:01;;;;;;;18.50;6.97;;;6.60;89.40;;;;;;4982778;28;20481;-62
2022/09/23 03:52:28;;;;;;;21.07;7.33;;;6.60;89.30;;;;;;4992540;28;20850;-63
2022/09/23 03:54:55;;;;;;;21.63;6.90;;;6.50;89.60;;;;;;4994074;28;20998;-62
2022/09/23 03:57:23;;;;;;;19.33;8.67;;;;;;;;;;4993745;28;20490;-63
2022/09/23 03:59:50;;;;;;;25.43;8.03;;;6.50;89.70;;;;;;4992106;28;21021;-63
2022/09/23 04:02:17;;;;;;;15.37;5.93;;;6.50;89.40;;;;;;4995117;28;20475;-64
2022/09/23 04:04:46;;;;;;;14.50;6.80;;;;;;;;;;4995828;28;20969;-62
2022/09/23 04:07:14;;;;;;;23.47;7.77;;;6.50;90.10;;;;;;4993698;28;20493;-62
2022/09/23 04:09:41;;;;;;;12.73;6.60;;;6.50;90.30;;;;;;4992451;28;20958;-64
2022/09/23 04:12:11;;;;;;;18.80;8.67;;;6.40;90.90;;;;;;4992552;28;21057;-62
2022/09/23 04:14:38;;;;;;;15.93;5.60;;;6.30;91.00;;;;;;4990638;28;20485;-62
2022/09/23 04:17:05;;;;;;;11.77;6.07;;;6.00;90.70;;;;;;4992931;28;20550;-61
2022/09/23 04:19:31;;;;;;;16.90;5.93;;;6.40;90.50;;;;;;4993240;28;20478;-62
2022/09/23 04:22:00;;;;;;;21.67;6.87;;;6.40;90.40;;;;;;4994270;28;20489;-62
2022/09/23 04:24:27;;;;;;;14.30;5.67;;;6.30;90.30;;;;;;4993263;28;20904;-62
2022/09/23 04:26:54;;;;;;;13.80;7.07;;;6.30;90.20;;;;;;5012257;28;20580;-63
2022/09/23 04:29:21;;;;;;;24.47;9.07;;;6.20;90.30;;;;;;4997238;28;20501;-62
2022/09/23 04:31:48;;;;;;;21.70;8.03;;;6.10;90.50;;;;;;4998478;28;20481;-62
2022/09/23 04:34:16;;;;;;;16.30;8.20;;;6.00;91.20;;;;;;5005174;28;20681;-62
2022/09/23 04:36:43;;;;;;;17.47;7.47;;;;;;;;;;4994608;28;20474;-63
2022/09/23 04:39:11;;;;;;;17.53;6.60;;;5.90;92.10;;;;;;4997970;28;21202;-64
2022/09/23 04:41:38;;;;;;;15.80;7.60;;;6.00;91.80;;;;;;4994052;28;20486;-65
2022/09/23 04:44:05;;;;;;;20.77;6.47;;;6.00;91.60;;;;;;4999543;28;20490;-64
2022/09/23 04:46:32;;;;;;;22.27;7.27;;;6.10;91.40;;;;;;4994730;28;20547;-63
2022/09/23 04:48:59;;;;;;;19.10;7.80;;;;;;;;;;5000006;28;20482;-65
2022/09/23 04:51:27;;;;;;;17.47;7.30;;;6.10;91.20;;;;;;4998731;28;20593;-64
2022/09/23 04:53:55;;;;;;;19.13;8.40;;;6.10;91.10;;;;;;4999012;28;20488;-64
2022/09/23 04:56:25;;;;;;;16.83;8.30;;;6.10;91.10;;;;;;4992474;28;20482;-65
2022/09/23 04:58:52;;;;;;;15.87;6.13;;;6.10;90.90;;;;;;4996204;28;20878;-63
2022/09/23 05:01:24;;;;;;;26.20;10.33;;;6.10;90.80;;;;;;4996560;28;20490;-64
2022/09/23 05:03:52;;;;;;;16.33;8.03;;;6.10;90.80;;;;;;4994297;28;20492;-64
2022/09/23 05:06:19;;;;;;;22.10;7.60;;;;;;;;;;4989461;28;20494;-65
2022/09/23 05:08:48;;;;;;;17.83;7.47;;;6.10;90.70;;;;;;5000161;28;20742;-63
2022/09/23 05:11:16;;;;;;;29.50;10.57;;;6.10;90.60;;;;;;4993636;28;20488;-62
2022/09/23 05:13:45;;;;;;;12.40;6.53;;;6.20;90.60;;;;;;4995090;28;20685;-62
2022/09/23 05:16:12;;;;;;;20.50;10.00;;;6.10;90.60;;;;;;4997243;28;20513;-65
2022/09/23 05:18:41;;;;;;;19.03;7.57;;;6.20;90.70;;;;;;4999333;28;20573;-63
2022/09/23 05:21:09;;;;;;;22.20;7.50;;;6.20;90.60;;;;;;5003162;28;20477;-62
2022/09/23 05:23:35;;;;;;;17.80;7.53;;;6.20;90.60;;;;;;4997850;28;20490;-64
2022/09/23 05:26:05;;;;;;;25.60;7.20;;;6.20;90.50;;;;;;4998374;28;20490;-64
2022/09/23 05:28:33;;;;;;;15.30;6.97;;;6.20;90.50;;;;;;4995782;28;20486;-64
2022/09/23 05:31:06;;;;;;;25.70;9.67;;;6.20;90.60;;;;;;4992402;28;20748;-65
2022/09/23 05:33:33;;;;;;;17.30;5.60;;;;;;;;;;4988564;28;22331;-63
2022/09/23 05:36:01;;;;;;;14.67;7.23;;;6.10;90.60;;;;;;4994265;28;20589;-63
2022/09/23 05:38:28;;;;;;;19.73;8.43;;;6.10;90.70;;;;;;4996377;28;20558;-65
2022/09/23 05:40:56;;;;;;;14.90;5.67;;;6.10;90.60;;;;;;4994887;28;20493;-63
2022/09/23 05:43:23;;;;;;;23.10;7.97;;;6.10;90.70;;;;;;4988771;28;21135;-64
2022/09/23 05:45:50;;;;;;;21.30;9.23;;;6.20;90.90;;;;;;4984103;28;20489;-63
2022/09/23 05:48:18;;;;;;;20.33;7.30;;;6.20;91.00;;;;;;4986386;28;20850;-64
2022/09/23 05:50:49;;;;;;;17.50;7.53;;;6.20;91.00;;;;;;4991436;28;20490;-63
2022/09/23 05:53:17;;;;;;;23.27;10.17;;;;;;;;;;4988362;28;20482;-63
2022/09/23 05:55:44;;;;;;;15.83;7.80;;;6.30;91.00;;;;;;4995836;28;20816;-63
2022/09/23 05:58:11;;;;;;;15.07;7.60;;;6.30;91.00;;;;;;4995534;28;20480;-64
2022/09/23 06:00:39;;;;;;;13.23;6.70;;;;;;;;;;4995227;28;20760;-63
2022/09/23 06:03:06;;;;;;;22.90;9.30;;;;;;;;;;4992726;28;20509;-64
2022/09/23 06:05:34;;;;;;;16.53;8.40;;;6.50;91.30;;;;;;4992031;28;20913;-64
2022/09/23 06:08:01;;;;;;;14.77;6.70;;;6.60;91.40;;;;;;4994603;28;20510;-64
2022/09/23 06:10:28;;;;;;;19.27;8.87;;;6.60;91.30;;;;;;4989555;28;20512;-63
2022/09/23 06:12:55;;;;;;;18.03;8.80;;;;;;;;;;4997258;28;20481;-64
2022/09/23 06:15:21;;;;;;;18.53;9.93;;;6.80;91.30;;;;;;4986748;28;20926;-65
2022/09/23 06:17:49;;;;;;;20.00;6.93;;;6.80;91.70;;;;;;4992610;28;20559;-64
2022/09/23 06:20:15;;;;;;;16.30;6.80;;;6.90;92.10;;;;;;4972059;28;20481;-65
2022/09/23 06:22:43;;;;;;;21.67;8.90;;;7.00;91.90;;;;;;4989327;28;21239;-64
2022/09/23 06:25:11;;;;;;;18.60;9.73;;;7.20;91.90;;;;;;4992752;28;21038;-64
2022/09/23 06:27:37;;;;;;;15.10;9.53;;;7.30;91.90;;;;;;4984903;28;20807;-65
2022/09/23 06:30:05;;;;;;;15.97;7.93;;;7.60;92.20;;;;;;4982045;28;21066;-64
2022/09/23 06:32:32;;;;;;;13.73;7.87;;;7.90;92.10;;;;;;5004053;28;20478;-64
2022/09/23 06:34:59;;;;;;;12.20;7.53;;;;;;;;;;4996504;28;21122;-64
2022/09/23 06:37:26;;;;;;;24.33;9.40;;;8.40;91.90;;;;;;4993318;28;20908;-65
2022/09/23 06:39:54;;;;;;;22.47;9.20;;;11.60;91.90;;;;;;4989842;28;20490;-64
2022/09/23 06:42:20;;;;;;;16.73;9.23;;;8.70;91.10;;;;;;4994344;28;20489;-64
2022/09/23 06:44:48;;;;;;;15.70;8.50;;;8.80;91.30;;;;;;5000083;28;20971;-63
2022/09/23 06:47:15;;;;;;;20.30;9.50;;;8.80;91.50;;;;;;4994318;28;20494;-64
2022/09/23 06:49:41;;;;;;;14.43;8.77;;;9.10;91.40;;;;;;4991575;28;20683;-64
2022/09/23 06:52:08;;;;;;;16.33;8.13;;;9.50;91.50;;;;;;4994123;28;21012;-64
2022/09/23 06:54:36;;;;;;;11.00;8.20;;;10.00;90.80;;;;;;4992581;28;20590;-63
2022/09/23 06:57:04;;;;;;;15.80;8.10;;;10.50;90.80;;;;;;4993354;28;20490;-64
2022/09/23 06:59:32;;;;;;;14.63;7.70;;;11.00;90.00;;;;;;4992341;28;20513;-64
2022/09/23 07:01:59;;;;;;;20.40;9.03;;;;;;;;;;4989387;28;20570;-63
2022/09/23 07:04:25;;;;;;;20.43;8.73;;;11.80;88.00;;;;;;4992739;28;20976;-64
2022/09/23 07:06:54;;;;;;;17.93;7.50;;;;;;;;;;4988778;28;20877;-63
2022/09/23 07:09:21;;;;;;;15.50;10.17;;;12.20;87.60;;;;;;4993526;28;21248;-64
2022/09/23 07:11:47;;;;;;;10.03;7.20;;;12.30;87.30;;;;;;4994520;28;20486;-64
2022/09/23 07:14:15;;;;;;;13.17;7.77;;;12.60;88.10;;;;;;4993981;28;20529;-63
2022/09/23 07:16:42;;;;;;;25.57;10.30;;;13.00;87.30;;;;;;4980050;28;20574;-64
2022/09/23 07:19:09;;;;;;;12.23;8.67;;;13.60;89.50;;;;;;4978164;28;20829;-64
2022/09/23 07:21:36;;;;;;;32.00;10.23;;;;;;;;;;4999744;28;20511;-64
2022/09/23 07:24:03;;;;;;;11.17;8.13;;;14.60;86.80;;;;;;4996114;28;20653;-63
2022/09/23 07:26:32;;;;;;;11.70;8.03;;;15.10;85.00;;;;;;5006300;28;20477;-64
2022/09/23 07:29:03;;;;;;;17.07;7.23;;;15.40;83.30;;;;;;5000651;28;20470;-63
2022/09/23 07:31:32;;;;;;;14.87;7.93;;;15.90;83.70;;;;;;5005904;28;21325;-64
2022/09/23 07:34:00;;;;;;;22.17;8.80;;;16.00;82.60;;;;;;5007795;28;20473;-64
2022/09/23 07:36:30;;;;;;;15.30;7.80;;;16.30;82.40;;;;;;5004718;28;20564;-63
2022/09/23 07:39:01;;;;;;;14.37;8.30;;;16.60;84.70;;;;;;5004600;28;20482;-64
2022/09/23 07:41:29;;;;;;;18.03;7.57;;;17.10;83.60;;;;;;5005229;28;20483;-64
2022/09/23 07:43:57;;;;;;;19.10;8.27;;;;;;;;;;5002951;28;20487;-64
2022/09/23 07:46:26;;;;;;;18.87;7.77;;;17.90;81.20;;;;;;4991794;28;20490;-63
2022/09/23 07:48:54;;;;;;;16.90;8.50;;;17.80;77.30;;;;;;4991377;28;20477;-64
2022/09/23 07:51:25;;;;;;;19.00;11.10;;;17.80;79.50;;;;;;5002697;28;20985;-64
2022/09/23 07:53:53;;;;;;;17.53;9.37;;;17.50;79.80;;;;;;5003311;28;20484;-64
2022/09/23 07:56:21;;;;;;;25.40;9.83;;;17.40;80.40;;;;;;5004087;28;20504;-64
2022/09/23 07:58:58;;;;;;;12.80;8.80;;;17.40;81.60;;;;;;5000175;28;20478;-64
2022/09/23 08:01:26;;;;;;;13.60;8.30;;;17.40;78.70;;;;;;5004456;28;20654;-64
2022/09/23 08:03:54;;;;;;;25.70;9.00;;;17.60;82.40;;;;;;5005646;28;20970;-63
2022/09/23 08:06:21;;;;;;;13.77;9.47;;;17.70;80.50;;;;;;5001331;28;20496;-64
2022/09/23 08:08:47;;;;;;;15.77;8.80;;;17.60;80.50;;;;;;5008814;28;20482;-64
2022/09/23 08:11:14;;;;;;;14.43;9.53;;;17.70;81.80;;;;;;5008117;28;20488;-63
2022/09/23 08:13:42;;;;;;;13.70;8.30;;;17.80;80.90;;;;;;4998041;28;20999;-62
2022/09/23 08:16:08;;;;;;;13.10;9.53;;;17.90;80.90;;;;;;4991208;28;20481;-63
2022/09/23 08:18:35;;;;;;;21.00;10.00;;;17.70;78.90;;;;;;5002152;28;20477;-64
2022/09/23 08:21:04;;;;;;;18.93;7.97;;;17.40;79.80;;;;;;5000463;28;20486;-64
2022/09/23 08:23:32;;;;;;;12.10;9.23;;;17.10;80.90;;;;;;5003685;28;20477;-63
2022/09/23 08:26:00;;;;;;;23.13;11.07;;;16.90;82.30;;;;;;5000958;28;20516;-63
2022/09/23 08:28:27;;;;;;;18.83;10.70;;;16.80;84.60;;;;;;4987954;28;20474;-63
2022/09/23 08:30:54;;;;;;;34.83;10.30;;;16.60;83.50;;;;;;4993755;28;20577;-63
2022/09/23 08:33:21;;;;;;;13.00;8.90;;;16.30;84.60;;;;;;5002463;28;20841;-63
2022/09/23 08:35:48;;;;;;;15.33;8.77;;;16.10;84.90;;;;;;4999140;28;20493;-63
2022/09/23 08:38:16;;;;;;;29.73;9.50;;;16.00;86.60;;;;;;4998592;28;20862;-63
2022/09/23 08:40:46;;;;;;;18.50;9.20;;;15.80;87.20;;;;;;5002061;28;20994;-62
2022/09/23 08:43:18;;;;;;;28.93;11.23;;;15.60;88.30;;;;;;5003272;28;20489;-63
2022/09/23 08:45:45;;;;;;;16.93;9.03;;;15.60;90.00;;;;;;5001691;28;20593;-63
2022/09/23 08:48:14;;;;;;;16.10;10.30;;;;;;;;;;4998434;28;20630;-63
2022/09/23 08:50:44;;;;;;;15.03;8.90;;;15.70;88.90;;;;;;5003941;28;20484;-63
2022/09/23 08:53:20;;;;;;;15.00;9.33;;;16.10;90.80;;;;;;5003917;28;20586;-63
2022/09/23 08:55:49;;;;;;;16.10;9.67;;;16.40;89.80;;;;;;5005034;28;20496;-63
2022/09/23 08:58:29;;;;;;;18.93;9.63;;;17.00;89.30;;;;;;4995925;28;20517;-63
2022/09/23 09:01:05;;;;;;;15.30;10.50;;;17.00;86.80;;;;;;4992461;28;20515;-63
2022/09/23 09:03:37;;;;;;;24.90;10.60;;;17.00;88.20;;;;;;4990537;28;20473;-63
2022/09/23 09:06:04;;;;;;;19.00;10.67;;;17.10;88.00;;;;;;4994116;28;20477;-63
2022/09/23 09:08:34;;;;;;;13.07;9.27;;;;;;;;;;5001217;28;20477;-63
2022/09/23 09:11:01;;;;;;;25.10;11.27;;;17.50;88.20;;;;;;4994117;28;20560;-63
2022/09/23 09:13:31;;;;;;;14.63;10.23;;;17.80;87.60;;;;;;5006707;28;20482;-63
2022/09/23 09:16:26;;;;;;;21.97;10.63;;;18.10;86.30;;;;;;5007426;28;20965;-63
2022/09/23 09:18:59;;;;;;;17.00;9.80;;;18.40;87.40;;;;;;4997599;28;21041;-63
2022/09/23 09:21:30;;;;;;;23.10;10.17;;;;;;;;;;5004136;28;20485;-63
2022/09/23 09:23:59;;;;;;;17.40;10.90;;;;;;;;;;5006823;28;20972;-63
2022/09/23 09:26:29;;;;;;;23.33;11.13;;;18.50;83.50;;;;;;5002221;28;20481;-63
2022/09/23 09:29:00;;;;;;;27.37;9.40;;;18.50;84.90;;;;;;5005694;28;20508;-63
2022/09/23 09:31:32;;;;;;;20.73;11.87;;;18.80;86.10;;;;;;5006838;28;20488;-63
2022/09/23 09:34:05;;;;;;;26.13;11.43;;;18.80;83.40;;;;;;5002646;28;20481;-63
2022/09/23 09:36:39;;;;;;;20.83;11.13;;;18.80;83.40;;;;;;5006731;28;20485;-63
2022/09/23 09:39:09;;;;;;;19.83;9.60;;;;;;;;;;4992408;28;20480;-63
2022/09/23 09:41:38;;;;;;;20.80;10.77;;;18.80;83.20;;;;;;5004764;28;20497;-63
2022/09/23 09:44:19;;;;;;;18.13;9.90;;;18.70;83.00;;;;;;5006134;28;20492;-63
2022/09/23 09:46:55;;;;;;;26.40;10.47;;;18.70;81.70;;;;;;5005418;28;20489;-63
2022/09/23 09:49:32;;;;;;;21.40;10.80;;;18.90;83.10;;;;;;5002501;28;21507;-63
2022/09/23 09:52:22;;;;;;;14.23;9.37;;;19.00;81.80;;;;;;4995980;28;20485;-63
2022/09/23 09:54:50;;;;;;;21.23;9.40;;;19.20;80.80;;;;;;4989509;28;20890;-63
2022/09/23 09:57:30;;;;;;;18.33;11.83;;;19.30;81.00;;;;;;5005010;28;20493;-63
2022/09/23 09:59:57;;;;;;;18.80;8.63;;;19.30;79.30;;;;;;5004996;28;21010;-63
2022/09/23 10:02:29;;;;;;;16.53;6.97;;;;;;;;;;5000248;28;20512;-63
2022/09/23 10:04:59;;;;;;;18.23;8.47;;;19.20;78.30;;;;;;5006085;28;20476;-63
2022/09/23 10:07:28;;;;;;;15.33;8.20;;;19.40;80.40;;;;;;5003422;28;20485;-63
2022/09/23 10:09:57;;;;;;;13.70;6.40;;;19.50;78.30;;;;;;5004057;28;20477;-63
2022/09/23 10:12:25;;;;;;;14.70;8.27;;;19.60;78.90;;;;;;5007186;28;20516;-63
2022/09/23 10:14:56;;;;;;;16.20;8.10;;;19.80;78.30;;;;;;5010122;28;20489;-63
2022/09/23 10:17:30;;;;;;;18.27;8.27;;;20.00;79.00;;;;;;5004333;28;20477;-63
2022/09/23 10:20:00;;;;;;;17.90;8.50;;;20.30;78.30;;;;;;5003640;28;20477;-64
2022/09/23 10:22:31;;;;;;;20.63;8.33;;;20.30;76.50;;;;;;5003572;28;20553;-63
2022/09/23 10:25:04;;;;;;;17.57;7.97;;;20.10;77.20;;;;;;5004639;28;20478;-64
2022/09/23 10:27:33;;;;;;;19.77;8.60;;;20.10;76.40;;;;;;4999164;28;20485;-63
2022/09/23 10:30:02;;;;;;;24.10;9.73;;;20.20;76.50;;;;;;5004838;28;20556;-64
2022/09/23 10:32:35;;;;;;;22.57;10.00;;;20.30;78.10;;;;;;5003692;28;20989;-64
2022/09/23 10:35:12;;;;;;;18.10;8.83;;;20.50;78.40;;;;;;5004126;28;20566;-63
2022/09/23 10:37:40;;;;;;;18.90;9.40;;;20.70;77.40;;;;;;5003208;28;20484;-64
2022/09/23 10:49:26;;;;;;;9.13;5.50;;;21.40;75.30;;;;;;4997788;28;20872;-64
2022/09/23 10:52:10;;;;;;;10.53;6.43;;;21.40;75.10;;;;;;5006220;28;20477;-63
2022/09/23 10:54:44;;;;;;;10.90;6.10;;;;;;;;;;5003767;28;20484;-64
2022/09/23 10:57:40;;;;;;;11.07;6.90;;;21.60;73.00;;;;;;5004501;28;20476;-64
2022/09/23 11:00:17;;;;;;;15.87;6.80;;;21.60;74.30;;;;;;5003707;28;20512;-64
2022/09/23 11:03:01;;;;;;;11.70;7.60;;;21.70;72.70;;;;;;4989240;28;20779;-63
2022/09/23 11:05:38;;;;;;;10.00;6.30;;;21.80;71.10;;;;;;4997998;28;21054;-63
2022/09/23 11:08:17;;;;;;;10.47;6.27;;;;;;;;;;4991165;28;20500;-64
2022/09/23 11:11:00;;;;;;;11.23;6.40;;;21.80;71.50;;;;;;4989941;28;20488;-63
2022/09/23 11:13:51;;;;;;;12.00;6.70;;;22.00;71.50;;;;;;5000247;28;20993;-64
2022/09/23 11:16:23;;;;;;;13.70;8.17;;;;;;;;;;4990187;28;20477;-63
2022/09/23 11:19:03;;;;;;;10.00;5.83;;;;;;;;;;4997195;28;20489;-64
2022/09/23 11:21:50;;;;;;;10.80;6.60;;;22.50;69.00;;;;;;4997457;28;20485;-64
2022/09/23 11:24:50;;;;;;;16.47;4.77;;;22.80;70.10;;;;;;4987399;28;20541;-63
2022/09/23 11:27:24;;;;;;;17.33;6.30;;;;;;;;;;4963749;28;21182;-64
2022/09/23 11:30:07;;;;;;;12.83;5.10;;;22.80;68.10;;;;;;4994497;28;20486;-63
2022/09/23 11:33:01;;;;;;;7.30;4.23;;;22.90;67.00;;;;;;5001798;28;21062;-64
2022/09/23 11:35:33;;;;;;;9.50;5.30;;;22.60;66.30;;;;;;5000387;28;20485;-64
2022/09/23 11:38:06;;;;;;;19.13;4.93;;;22.40;69.80;;;;;;4989095;28;20494;-64
2022/09/23 11:40:36;;;;;;;18.37;6.73;;;22.50;68.40;;;;;;5007681;28;21057;-64
2022/09/23 11:43:12;;;;;;;19.40;6.40;;;22.10;65.80;;;;;;4998092;28;21101;-64
2022/09/23 11:45:44;;;;;;;14.87;5.13;;;22.10;67.70;;;;;;4998146;28;20473;-64
2022/09/23 11:48:13;;;;;;;7.47;3.80;;;;;;;;;;4993450;28;20473;-64
2022/09/23 11:50:47;;;;;;;10.40;5.20;;;22.10;69.80;;;;;;4999834;28;20531;-64
2022/09/23 11:53:20;;;;;;;4.50;4.13;;;22.10;67.00;;;;;;5000964;28;20469;-64
2022/09/23 11:55:49;;;;;;;10.33;4.10;;;;;;;;;;4994046;28;20478;-64
2022/09/23 11:58:19;;;;;;;26.53;5.83;;;21.90;70.40;;;;;;4995783;28;20488;-64
2022/09/23 12:00:49;;;;;;;20.07;7.00;;;;;;;;;;4984937;28;20470;-64
2022/09/23 12:03:22;;;;;;;7.70;4.63;;;21.70;69.00;;;;;;4994305;28;21056;-64
2022/09/23 12:05:58;;;;;;;13.23;6.70;;;21.50;67.60;;;;;;4986778;28;20996;-63
2022/09/23 12:08:28;;;;;;;14.03;5.20;;;21.40;68.40;;;;;;4994075;28;20608;-64
2022/09/23 12:11:04;;;;;;;9.67;6.30;;;21.50;70.70;;;;;;4997635;28;20484;-64
2022/09/23 12:13:39;;;;;;;8.07;5.37;;;21.30;69.50;;;;;;5000907;28;20762;-64
2022/09/23 12:16:39;;;;;;;17.10;5.50;;;21.30;71.20;;;;;;5002399;28;21215;-64
2022/09/23 12:19:19;;;;;;;10.80;4.93;;;21.30;72.10;;;;;;4989388;28;21060;-64
2022/09/23 12:22:00;;;;;;;13.00;6.30;;;21.20;68.70;;;;;;5002706;28;21360;-64
2022/09/23 12:24:46;;;;;;;8.60;5.90;;;21.10;71.10;;;;;;5003579;28;20477;-64
2022/09/23 12:27:26;;;;;;;19.77;4.70;;;20.90;71.00;;;;;;5000527;28;20484;-64
2022/09/23 12:29:57;;;;;;;21.00;5.93;;;21.10;71.30;;;;;;4986109;28;20955;-64
2022/09/23 12:32:25;;;;;;;21.13;6.47;;;20.90;70.40;;;;;;5001490;28;20655;-64
2022/09/23 12:34:53;;;;;;;7.33;6.03;;;20.70;69.10;;;;;;5000435;28;20790;-64
2022/09/23 12:37:27;;;;;;;14.93;6.20;;;20.70;71.40;;;;;;5002263;28;20767;-64
2022/09/23 12:39:58;;;;;;;11.57;3.80;;;20.90;74.10;;;;;;4988934;28;20477;-64
2022/09/23 12:42:25;;;;;;;26.70;6.50;;;20.50;72.40;;;;;;5000064;28;20490;-64
2022/09/23 12:45:13;;;;;;;18.03;6.93;;;20.60;70.60;;;;;;5006430;28;20477;-63
2022/09/23 12:47:40;;;;;;;13.13;4.80;;;20.70;72.20;;;;;;5002050;28;20493;-64
2022/09/23 12:50:44;;;;;;;9.87;5.90;;;20.70;71.10;;;;;;5004059;28;20978;-66
2022/09/23 12:53:29;;;;;;;7.73;4.73;;;;;;;;;;5003782;28;20829;-64
2022/09/23 12:55:59;;;;;;;16.70;5.83;;;20.90;72.80;;;;;;5006460;28;20590;-64
2022/09/23 12:58:38;;;;;;;12.90;5.27;;;21.00;72.10;;;;;;5000846;28;20484;-63
2022/09/23 13:01:08;;;;;;;8.40;4.67;;;21.10;72.50;;;;;;5003137;28;20531;-64
2022/09/23 13:09:07;;;;;;;8.47;4.53;;;;;;;;;;4997283;28;21107;-64
2022/09/23 13:11:39;;;;;;;7.90;4.23;;;21.50;71.00;;;;;;5006769;28;20754;-64
2022/09/23 13:14:06;;;;;;;11.23;4.10;;;;;;;;;;5007517;28;20535;-64
2022/09/23 13:16:35;;;;;;;19.03;3.80;;;21.60;71.10;;;;;;5011283;28;20566;-64
2022/09/23 13:19:05;;;;;;;8.90;3.47;;;21.60;68.90;;;;;;4995413;28;20481;-64
2022/09/23 13:22:07;;;;;;;9.20;4.00;;;21.50;68.60;;;;;;5004054;28;20489;-64
2022/09/23 13:24:46;;;;;;;6.80;3.47;;;21.30;67.70;;;;;;4996371;28;20480;-64
2022/09/23 13:27:22;;;;;;;19.47;3.90;;;21.30;69.80;;;;;;5003513;28;20511;-64
2022/09/23 13:29:53;;;;;;;8.30;4.60;;;21.50;71.60;;;;;;5000537;28;20476;-64
2022/09/23 13:32:22;;;;;;;19.73;4.50;;;21.50;72.50;;;;;;5006162;28;20580;-65